sensor_id;sensor_type;location;lat;lon;timestamp;pressure;altitude;pressure_sealevel;temperature;humidity
46379;BME280;32084;42.254;22.744;2023-08-30T00:01:37;94273.06;;;20.86;91.89
46379;BME280;32084;42.254;22.744;2023-08-30T00:04:03;94275.53;;;20.71;93.41
46379;BME280;32084;42.254;22.744;2023-08-30T00:06:29;94268.91;;;20.50;93.35
46379;BME280;32084;42.254;22.744;2023-08-30T00:08:56;94268.63;;;20.63;92.40
46379;BME280;32084;42.254;22.744;2023-08-30T00:11:23;94262.59;;;20.61;92.81
46379;BME280;32084;42.254;22.744;2023-08-30T00:13:49;94262.75;;;20.55;94.01
46379;BME280;32084;42.254;22.744;2023-08-30T00:16:15;94269.97;;;20.49;94.43
46379;BME280;32084;42.254;22.744;2023-08-30T00:18:42;94280.28;;;20.64;93.21
46379;BME280;32084;42.254;22.744;2023-08-30T00:21:10;94291.00;;;20.71;92.95
46379;BME280;32084;42.254;22.744;2023-08-30T00:23:36;94289.97;;;20.72;92.94
46379;BME280;32084;42.254;22.744;2023-08-30T00:26:02;94285.91;;;20.74;92.56
46379;BME280;32084;42.254;22.744;2023-08-30T00:28:28;94288.19;;;20.65;93.01
46379;BME280;32084;42.254;22.744;2023-08-30T00:30:54;94289.75;;;20.61;92.74
46379;BME280;32084;42.254;22.744;2023-08-30T00:33:21;94296.56;;;20.47;94.64
46379;BME280;32084;42.254;22.744;2023-08-30T00:35:54;94297.84;;;20.44;94.25
46379;BME280;32084;42.254;22.744;2023-08-30T00:38:20;94295.72;;;20.46;94.26
46379;BME280;32084;42.254;22.744;2023-08-30T00:40:46;94295.22;;;20.50;94.48
46379;BME280;32084;42.254;22.744;2023-08-30T00:43:12;94295.00;;;20.51;94.92
46379;BME280;32084;42.254;22.744;2023-08-30T00:45:38;94302.34;;;20.39;94.44
46379;BME280;32084;42.254;22.744;2023-08-30T00:48:06;94293.88;;;20.35;94.21
46379;BME280;32084;42.254;22.744;2023-08-30T00:50:32;94296.97;;;20.27;94.16
46379;BME280;32084;42.254;22.744;2023-08-30T00:52:58;94296.25;;;20.32;93.87
46379;BME280;32084;42.254;22.744;2023-08-30T00:55:24;94290.56;;;20.33;93.74
46379;BME280;32084;42.254;22.744;2023-08-30T00:57:50;94287.38;;;20.36;93.19
46379;BME280;32084;42.254;22.744;2023-08-30T01:00:16;94287.38;;;20.36;93.28
46379;BME280;32084;42.254;22.744;2023-08-30T01:02:43;94278.22;;;20.25;94.05
46379;BME280;32084;42.254;22.744;2023-08-30T01:05:09;94291.50;;;20.10;94.03
46379;BME280;32084;42.254;22.744;2023-08-30T01:07:35;94292.59;;;19.97;94.84
46379;BME280;32084;42.254;22.744;2023-08-30T01:10:01;94302.16;;;20.00;94.92
46379;BME280;32084;42.254;22.744;2023-08-30T01:12:33;94295.00;;;20.22;93.29
46379;BME280;32084;42.254;22.744;2023-08-30T01:17:29;94297.44;;;20.24;93.64
46379;BME280;32084;42.254;22.744;2023-08-30T01:20:01;94289.81;;;20.21;93.05
46379;BME280;32084;42.254;22.744;2023-08-30T01:27:42;94307.69;;;19.93;94.36
46379;BME280;32084;42.254;22.744;2023-08-30T01:30:09;94302.78;;;19.90;93.97
46379;BME280;32084;42.254;22.744;2023-08-30T01:32:36;94302.78;;;19.90;94.61
46379;BME280;32084;42.254;22.744;2023-08-30T01:35:03;94304.66;;;19.78;94.50
46379;BME280;32084;42.254;22.744;2023-08-30T01:37:30;94299.28;;;19.54;95.63
46379;BME280;32084;42.254;22.744;2023-08-30T01:39:57;94298.06;;;19.50;96.48
46379;BME280;32084;42.254;22.744;2023-08-30T01:42:25;94294.88;;;19.65;95.90
46379;BME280;32084;42.254;22.744;2023-08-30T01:44:53;94304.56;;;19.73;95.57
46379;BME280;32084;42.254;22.744;2023-08-30T01:47:26;94306.91;;;19.81;95.33
46379;BME280;32084;42.254;22.744;2023-08-30T01:49:53;94307.50;;;19.83;95.40
46379;BME280;32084;42.254;22.744;2023-08-30T01:52:20;94309.13;;;19.84;95.25
46379;BME280;32084;42.254;22.744;2023-08-30T01:54:46;94306.56;;;19.65;96.16
46379;BME280;32084;42.254;22.744;2023-08-30T01:57:13;94302.31;;;19.58;96.40
46379;BME280;32084;42.254;22.744;2023-08-30T01:59:39;94297.38;;;19.55;97.13
46379;BME280;32084;42.254;22.744;2023-08-30T02:02:05;94294.41;;;19.68;95.93
46379;BME280;32084;42.254;22.744;2023-08-30T02:04:31;94300.38;;;19.94;94.87
46379;BME280;32084;42.254;22.744;2023-08-30T02:12:07;94285.03;;;19.99;95.36
46379;BME280;32084;42.254;22.744;2023-08-30T02:14:35;94285.03;;;19.99;95.23
46379;BME280;32084;42.254;22.744;2023-08-30T02:17:02;94283.63;;;19.97;95.41
46379;BME280;32084;42.254;22.744;2023-08-30T02:19:28;94267.22;;;20.03;94.98
46379;BME280;32084;42.254;22.744;2023-08-30T02:21:54;94286.22;;;20.03;95.85
46379;BME280;32084;42.254;22.744;2023-08-30T02:24:20;94279.59;;;19.99;96.04
46379;BME280;32084;42.254;22.744;2023-08-30T02:26:46;94284.59;;;19.91;95.59
46379;BME280;32084;42.254;22.744;2023-08-30T02:29:12;94291.31;;;19.88;95.67
46379;BME280;32084;42.254;22.744;2023-08-30T02:31:39;94290.50;;;19.87;96.84
46379;BME280;32084;42.254;22.744;2023-08-30T02:34:05;94283.53;;;19.92;96.37
46379;BME280;32084;42.254;22.744;2023-08-30T02:36:30;94292.69;;;20.02;94.87
46379;BME280;32084;42.254;22.744;2023-08-30T02:38:56;94290.34;;;20.06;94.92
46379;BME280;32084;42.254;22.744;2023-08-30T02:41:22;94291.50;;;20.10;95.48
46379;BME280;32084;42.254;22.744;2023-08-30T02:43:48;94292.22;;;20.05;96.57
46379;BME280;32084;42.254;22.744;2023-08-30T02:46:14;94267.47;;;20.02;97.54
46379;BME280;32084;42.254;22.744;2023-08-30T02:48:40;94275.56;;;20.14;96.60
46379;BME280;32084;42.254;22.744;2023-08-30T02:51:06;94276.81;;;20.23;95.46
46379;BME280;32084;42.254;22.744;2023-08-30T02:53:32;94275.19;;;20.39;95.03
46379;BME280;32084;42.254;22.744;2023-08-30T02:55:58;94270.69;;;20.44;94.31
46379;BME280;32084;42.254;22.744;2023-08-30T02:58:24;94270.44;;;20.46;93.91
46379;BME280;32084;42.254;22.744;2023-08-30T03:00:50;94281.41;;;20.51;93.96
46379;BME280;32084;42.254;22.744;2023-08-30T03:03:16;94285.25;;;20.38;95.79
46379;BME280;32084;42.254;22.744;2023-08-30T03:05:42;94277.53;;;20.18;97.14
46379;BME280;32084;42.254;22.744;2023-08-30T03:08:08;94285.25;;;20.09;97.49
46379;BME280;32084;42.254;22.744;2023-08-30T03:10:34;94288.09;;;20.03;97.13
46379;BME280;32084;42.254;22.744;2023-08-30T03:13:00;94287.63;;;20.06;98.47
46379;BME280;32084;42.254;22.744;2023-08-30T03:15:26;94296.72;;;20.00;99.27
46379;BME280;32084;42.254;22.744;2023-08-30T03:17:52;94302.97;;;20.00;98.60
46379;BME280;32084;42.254;22.744;2023-08-30T03:20:18;94302.28;;;20.22;98.08
46379;BME280;32084;42.254;22.744;2023-08-30T03:22:44;94311.19;;;20.46;97.61
46379;BME280;32084;42.254;22.744;2023-08-30T03:25:10;94314.22;;;20.50;98.11
46379;BME280;32084;42.254;22.744;2023-08-30T03:27:36;94318.75;;;20.44;99.76
46379;BME280;32084;42.254;22.744;2023-08-30T03:30:03;94313.25;;;20.27;100.00
46379;BME280;32084;42.254;22.744;2023-08-30T03:32:29;94317.53;;;20.23;100.00
46379;BME280;32084;42.254;22.744;2023-08-30T03:34:57;94309.34;;;20.35;100.00
46379;BME280;32084;42.254;22.744;2023-08-30T03:37:23;94306.16;;;20.38;100.00
46379;BME280;32084;42.254;22.744;2023-08-30T03:39:49;94314.53;;;20.36;100.00
46379;BME280;32084;42.254;22.744;2023-08-30T03:42:15;94311.38;;;20.27;100.00
46379;BME280;32084;42.254;22.744;2023-08-30T03:44:41;94326.19;;;20.08;100.00
46379;BME280;32084;42.254;22.744;2023-08-30T03:47:07;94325.13;;;19.97;100.00
46379;BME280;32084;42.254;22.744;2023-08-30T03:49:33;94324.88;;;20.11;100.00
46379;BME280;32084;42.254;22.744;2023-08-30T03:51:59;94325.78;;;20.28;100.00
46379;BME280;32084;42.254;22.744;2023-08-30T03:54:25;94328.56;;;20.33;100.00
46379;BME280;32084;42.254;22.744;2023-08-30T03:56:51;94345.25;;;20.25;100.00
46379;BME280;32084;42.254;22.744;2023-08-30T03:59:17;94344.44;;;20.13;100.00
46379;BME280;32084;42.254;22.744;2023-08-30T04:01:43;94348.44;;;20.22;100.00
46379;BME280;32084;42.254;22.744;2023-08-30T04:04:10;94352.13;;;20.16;100.00
46379;BME280;32084;42.254;22.744;2023-08-30T04:06:36;94347.03;;;20.19;100.00
46379;BME280;32084;42.254;22.744;2023-08-30T04:09:01;94354.09;;;20.32;100.00
46379;BME280;32084;42.254;22.744;2023-08-30T04:11:27;94349.66;;;20.43;100.00
46379;BME280;32084;42.254;22.744;2023-08-30T04:13:53;94349.81;;;20.36;100.00
46379;BME280;32084;42.254;22.744;2023-08-30T04:16:19;94337.81;;;20.32;100.00
46379;BME280;32084;42.254;22.744;2023-08-30T04:18:45;94349.31;;;20.39;100.00
46379;BME280;32084;42.254;22.744;2023-08-30T04:21:11;94360.31;;;20.33;100.00
46379;BME280;32084;42.254;22.744;2023-08-30T04:23:37;94365.69;;;20.16;100.00
46379;BME280;32084;42.254;22.744;2023-08-30T04:26:03;94364.47;;;20.23;100.00
46379;BME280;32084;42.254;22.744;2023-08-30T04:28:29;94363.03;;;20.33;100.00
46379;BME280;32084;42.254;22.744;2023-08-30T04:30:55;94362.88;;;20.39;100.00
46379;BME280;32084;42.254;22.744;2023-08-30T04:33:22;94364.91;;;20.44;100.00
46379;BME280;32084;42.254;22.744;2023-08-30T04:35:51;94361.38;;;20.43;100.00
46379;BME280;32084;42.254;22.744;2023-08-30T04:38:18;94368.09;;;20.41;100.00
46379;BME280;32084;42.254;22.744;2023-08-30T04:40:43;94366.81;;;20.32;100.00
46379;BME280;32084;42.254;22.744;2023-08-30T04:43:09;94367.25;;;20.40;100.00
46379;BME280;32084;42.254;22.744;2023-08-30T04:45:35;94353.16;;;20.55;100.00
46379;BME280;32084;42.254;22.744;2023-08-30T04:48:02;94366.38;;;20.63;100.00
46379;BME280;32084;42.254;22.744;2023-08-30T04:50:28;94376.25;;;20.70;100.00
46379;BME280;32084;42.254;22.744;2023-08-30T04:52:54;94383.50;;;20.64;100.00
46379;BME280;32084;42.254;22.744;2023-08-30T04:55:20;94382.91;;;20.62;100.00
46379;BME280;32084;42.254;22.744;2023-08-30T04:57:46;94385.59;;;20.74;100.00
46379;BME280;32084;42.254;22.744;2023-08-30T05:00:13;94383.69;;;20.74;100.00
46379;BME280;32084;42.254;22.744;2023-08-30T05:02:39;94378.59;;;20.78;100.00
46379;BME280;32084;42.254;22.744;2023-08-30T05:05:06;94380.09;;;20.85;100.00
46379;BME280;32084;42.254;22.744;2023-08-30T05:07:32;94381.66;;;20.81;100.00
46379;BME280;32084;42.254;22.744;2023-08-30T05:09:58;94384.84;;;20.78;100.00
46379;BME280;32084;42.254;22.744;2023-08-30T05:12:24;94376.94;;;20.77;100.00
46379;BME280;32084;42.254;22.744;2023-08-30T05:14:50;94386.69;;;20.90;100.00
46379;BME280;32084;42.254;22.744;2023-08-30T05:17:16;94392.81;;;20.97;100.00
46379;BME280;32084;42.254;22.744;2023-08-30T05:19:42;94390.00;;;20.92;100.00
46379;BME280;32084;42.254;22.744;2023-08-30T05:22:08;94394.84;;;20.90;100.00
46379;BME280;32084;42.254;22.744;2023-08-30T05:24:34;94399.63;;;20.99;100.00
46379;BME280;32084;42.254;22.744;2023-08-30T05:27:00;94398.91;;;21.04;100.00
46379;BME280;32084;42.254;22.744;2023-08-30T05:29:26;94403.78;;;21.02;100.00
46379;BME280;32084;42.254;22.744;2023-08-30T05:31:52;94402.78;;;21.08;100.00
46379;BME280;32084;42.254;22.744;2023-08-30T05:34:18;94414.03;;;21.00;100.00
46379;BME280;32084;42.254;22.744;2023-08-30T05:36:44;94406.06;;;20.93;100.00
46379;BME280;32084;42.254;22.744;2023-08-30T05:39:10;94408.56;;;20.83;100.00
46379;BME280;32084;42.254;22.744;2023-08-30T05:41:36;94404.28;;;20.70;100.00
46379;BME280;32084;42.254;22.744;2023-08-30T05:44:02;94408.38;;;20.73;100.00
46379;BME280;32084;42.254;22.744;2023-08-30T05:46:28;94413.88;;;20.61;100.00
46379;BME280;32084;42.254;22.744;2023-08-30T05:48:54;94420.94;;;20.62;100.00
46379;BME280;32084;42.254;22.744;2023-08-30T05:51:20;94420.50;;;20.82;100.00
46379;BME280;32084;42.254;22.744;2023-08-30T05:53:46;94422.63;;;21.09;100.00
46379;BME280;32084;42.254;22.744;2023-08-30T05:56:12;94419.47;;;21.00;100.00
46379;BME280;32084;42.254;22.744;2023-08-30T05:58:38;94424.28;;;21.10;100.00
46379;BME280;32084;42.254;22.744;2023-08-30T06:01:04;94415.88;;;21.11;100.00
46379;BME280;32084;42.254;22.744;2023-08-30T06:03:32;94418.59;;;21.11;100.00
46379;BME280;32084;42.254;22.744;2023-08-30T06:05:58;94409.97;;;21.31;100.00
46379;BME280;32084;42.254;22.744;2023-08-30T06:08:24;94418.75;;;21.50;100.00
46379;BME280;32084;42.254;22.744;2023-08-30T06:10:49;94418.75;;;21.50;100.00
46379;BME280;32084;42.254;22.744;2023-08-30T06:13:15;94420.94;;;21.36;100.00
46379;BME280;32084;42.254;22.744;2023-08-30T06:15:41;94417.97;;;21.21;100.00
46379;BME280;32084;42.254;22.744;2023-08-30T06:18:07;94418.13;;;21.31;100.00
46379;BME280;32084;42.254;22.744;2023-08-30T06:20:33;94427.00;;;21.55;100.00
46379;BME280;32084;42.254;22.744;2023-08-30T06:23:02;94426.66;;;21.52;100.00
46379;BME280;32084;42.254;22.744;2023-08-30T06:25:28;94423.09;;;21.51;100.00
46379;BME280;32084;42.254;22.744;2023-08-30T06:27:58;94417.03;;;21.61;100.00
46379;BME280;32084;42.254;22.744;2023-08-30T06:30:25;94419.00;;;21.66;97.77
46379;BME280;32084;42.254;22.744;2023-08-30T06:32:51;94419.66;;;21.73;98.29
46379;BME280;32084;42.254;22.744;2023-08-30T06:35:17;94418.75;;;21.67;98.69
46379;BME280;32084;42.254;22.744;2023-08-30T06:37:43;94414.94;;;21.85;96.91
46379;BME280;32084;42.254;22.744;2023-08-30T06:40:09;94415.44;;;21.82;93.88
46379;BME280;32084;42.254;22.744;2023-08-30T06:42:35;94418.38;;;21.97;93.74
46379;BME280;32084;42.254;22.744;2023-08-30T06:45:01;94413.66;;;22.10;91.03
46379;BME280;32084;42.254;22.744;2023-08-30T06:47:28;94429.56;;;22.18;87.49
46379;BME280;32084;42.254;22.744;2023-08-30T06:49:54;94421.31;;;22.13;89.92
46379;BME280;32084;42.254;22.744;2023-08-30T06:52:20;94428.56;;;22.24;89.51
46379;BME280;32084;42.254;22.744;2023-08-30T06:54:47;94431.69;;;22.33;88.39
46379;BME280;32084;42.254;22.744;2023-08-30T06:57:12;94430.75;;;22.66;86.93
46379;BME280;32084;42.254;22.744;2023-08-30T06:59:39;94427.19;;;22.88;83.46
46379;BME280;32084;42.254;22.744;2023-08-30T07:02:05;94428.06;;;23.15;84.28
46379;BME280;32084;42.254;22.744;2023-08-30T07:04:31;94425.84;;;23.72;81.67
46379;BME280;32084;42.254;22.744;2023-08-30T07:06:57;94426.59;;;23.94;81.98
46379;BME280;32084;42.254;22.744;2023-08-30T07:09:23;94435.53;;;23.85;79.14
46379;BME280;32084;42.254;22.744;2023-08-30T07:11:54;94439.88;;;24.23;78.74
46379;BME280;32084;42.254;22.744;2023-08-30T07:14:20;94432.84;;;24.38;76.53
46379;BME280;32084;42.254;22.744;2023-08-30T07:16:46;94431.50;;;24.45;75.17
46379;BME280;32084;42.254;22.744;2023-08-30T07:19:15;94434.09;;;24.57;76.13
46379;BME280;32084;42.254;22.744;2023-08-30T07:21:41;94427.94;;;24.40;75.33
46379;BME280;32084;42.254;22.744;2023-08-30T07:24:07;94431.03;;;24.06;73.13
46379;BME280;32084;42.254;22.744;2023-08-30T07:26:34;94430.44;;;23.99;75.70
46379;BME280;32084;42.254;22.744;2023-08-30T07:29:00;94430.53;;;24.14;75.44
46379;BME280;32084;42.254;22.744;2023-08-30T07:31:26;94426.22;;;24.23;76.41
46379;BME280;32084;42.254;22.744;2023-08-30T07:33:52;94426.50;;;24.27;75.32
46379;BME280;32084;42.254;22.744;2023-08-30T07:36:18;94432.34;;;24.46;75.59
46379;BME280;32084;42.254;22.744;2023-08-30T07:38:44;94426.81;;;24.30;75.01
46379;BME280;32084;42.254;22.744;2023-08-30T07:41:10;94426.75;;;24.20;76.33
46379;BME280;32084;42.254;22.744;2023-08-30T07:43:36;94420.00;;;23.90;77.32
46379;BME280;32084;42.254;22.744;2023-08-30T07:46:02;94439.69;;;23.97;77.38
46379;BME280;32084;42.254;22.744;2023-08-30T07:48:28;94440.34;;;24.10;77.03
46379;BME280;32084;42.254;22.744;2023-08-30T07:50:53;94431.59;;;24.08;76.05
46379;BME280;32084;42.254;22.744;2023-08-30T07:53:19;94436.28;;;24.17;75.57
46379;BME280;32084;42.254;22.744;2023-08-30T07:55:49;94440.94;;;24.22;75.86
46379;BME280;32084;42.254;22.744;2023-08-30T07:58:16;94439.16;;;24.91;73.62
46379;BME280;32084;42.254;22.744;2023-08-30T08:00:42;94434.91;;;25.41;69.17
46379;BME280;32084;42.254;22.744;2023-08-30T08:03:09;94438.50;;;25.88;68.81
46379;BME280;32084;42.254;22.744;2023-08-30T08:05:36;94434.94;;;26.18;66.42
46379;BME280;32084;42.254;22.744;2023-08-30T08:08:02;94428.56;;;26.43;65.78
46379;BME280;32084;42.254;22.744;2023-08-30T08:10:32;94438.66;;;26.58;65.74
46379;BME280;32084;42.254;22.744;2023-08-30T08:12:59;94439.22;;;26.55;66.49
46379;BME280;32084;42.254;22.744;2023-08-30T08:15:26;94434.84;;;26.54;65.99
46379;BME280;32084;42.254;22.744;2023-08-30T08:17:52;94424.41;;;26.61;65.47
46379;BME280;32084;42.254;22.744;2023-08-30T08:20:18;94427.41;;;26.70;64.91
46379;BME280;32084;42.254;22.744;2023-08-30T08:22:44;94426.56;;;26.75;64.01
46379;BME280;32084;42.254;22.744;2023-08-30T08:25:11;94425.41;;;26.86;64.39
46379;BME280;32084;42.254;22.744;2023-08-30T08:27:37;94425.94;;;26.93;65.09
46379;BME280;32084;42.254;22.744;2023-08-30T08:30:03;94426.13;;;27.07;64.20
46379;BME280;32084;42.254;22.744;2023-08-30T08:32:29;94415.50;;;26.95;61.95
46379;BME280;32084;42.254;22.744;2023-08-30T08:34:56;94420.66;;;27.07;64.91
46379;BME280;32084;42.254;22.744;2023-08-30T08:37:22;94415.09;;;27.22;62.36
46379;BME280;32084;42.254;22.744;2023-08-30T08:39:48;94417.06;;;27.17;58.33
46379;BME280;32084;42.254;22.744;2023-08-30T08:42:18;94416.66;;;27.39;60.92
46379;BME280;32084;42.254;22.744;2023-08-30T08:44:44;94413.78;;;27.59;61.47
46379;BME280;32084;42.254;22.744;2023-08-30T08:47:11;94414.00;;;27.68;59.30
46379;BME280;32084;42.254;22.744;2023-08-30T08:49:37;94413.53;;;27.56;59.39
46379;BME280;32084;42.254;22.744;2023-08-30T08:52:04;94411.81;;;27.65;58.81
46379;BME280;32084;42.254;22.744;2023-08-30T08:54:30;94415.84;;;27.78;57.22
46379;BME280;32084;42.254;22.744;2023-08-30T08:56:56;94417.41;;;27.89;55.26
46379;BME280;32084;42.254;22.744;2023-08-30T08:59:22;94412.25;;;27.77;57.69
46379;BME280;32084;42.254;22.744;2023-08-30T09:01:49;94415.91;;;27.68;54.92
46379;BME280;32084;42.254;22.744;2023-08-30T09:04:15;94415.06;;;27.72;57.86
46379;BME280;32084;42.254;22.744;2023-08-30T09:06:41;94412.41;;;27.07;57.51
46379;BME280;32084;42.254;22.744;2023-08-30T09:09:09;94402.69;;;26.80;58.34
46379;BME280;32084;42.254;22.744;2023-08-30T09:11:35;94403.19;;;26.93;57.58
46379;BME280;32084;42.254;22.744;2023-08-30T09:14:01;94395.56;;;27.34;59.29
46379;BME280;32084;42.254;22.744;2023-08-30T09:16:27;94399.25;;;27.59;57.72
46379;BME280;32084;42.254;22.744;2023-08-30T09:18:57;94393.16;;;27.96;56.67
46379;BME280;32084;42.254;22.744;2023-08-30T09:21:23;94395.16;;;27.91;55.92
46379;BME280;32084;42.254;22.744;2023-08-30T09:23:56;94393.81;;;28.17;56.17
46379;BME280;32084;42.254;22.744;2023-08-30T09:26:22;94394.84;;;28.46;53.93
46379;BME280;32084;42.254;22.744;2023-08-30T09:28:48;94392.88;;;28.51;55.98
46379;BME280;32084;42.254;22.744;2023-08-30T09:31:17;94392.09;;;28.46;55.23
46379;BME280;32084;42.254;22.744;2023-08-30T09:33:46;94390.19;;;28.22;53.18
46379;BME280;32084;42.254;22.744;2023-08-30T09:36:15;94392.03;;;28.27;54.62
46379;BME280;32084;42.254;22.744;2023-08-30T09:38:47;94393.56;;;28.14;55.34
46379;BME280;32084;42.254;22.744;2023-08-30T09:41:13;94383.13;;;27.81;55.89
46379;BME280;32084;42.254;22.744;2023-08-30T09:43:42;94376.22;;;27.55;54.50
46379;BME280;32084;42.254;22.744;2023-08-30T09:46:08;94377.03;;;27.55;54.73
46379;BME280;32084;42.254;22.744;2023-08-30T09:48:34;94381.72;;;27.84;54.45
46379;BME280;32084;42.254;22.744;2023-08-30T09:51:00;94377.91;;;27.80;52.04
46379;BME280;32084;42.254;22.744;2023-08-30T09:53:28;94374.41;;;27.74;55.57
46379;BME280;32084;42.254;22.744;2023-08-30T09:55:56;94364.75;;;27.77;54.71
46379;BME280;32084;42.254;22.744;2023-08-30T09:58:23;94372.66;;;27.83;49.09
46379;BME280;32084;42.254;22.744;2023-08-30T10:00:50;94372.50;;;28.04;49.10
46379;BME280;32084;42.254;22.744;2023-08-30T10:03:16;94368.72;;;28.24;53.13
46379;BME280;32084;42.254;22.744;2023-08-30T10:05:44;94366.22;;;28.28;50.06
46379;BME280;32084;42.254;22.744;2023-08-30T10:08:12;94364.41;;;28.42;51.46
46379;BME280;32084;42.254;22.744;2023-08-30T10:10:39;94363.13;;;28.58;51.13
46379;BME280;32084;42.254;22.744;2023-08-30T10:13:06;94356.94;;;28.48;49.66
46379;BME280;32084;42.254;22.744;2023-08-30T10:15:33;94353.69;;;28.65;49.71
46379;BME280;32084;42.254;22.744;2023-08-30T10:18:00;94359.66;;;28.72;48.43
46379;BME280;32084;42.254;22.744;2023-08-30T10:20:26;94357.91;;;28.57;47.41
46379;BME280;32084;42.254;22.744;2023-08-30T10:22:53;94353.06;;;28.73;48.13
46379;BME280;32084;42.254;22.744;2023-08-30T10:25:21;94356.72;;;28.87;47.49
46379;BME280;32084;42.254;22.744;2023-08-30T10:27:48;94355.09;;;29.05;47.11
46379;BME280;32084;42.254;22.744;2023-08-30T10:30:15;94358.19;;;29.23;45.48
46379;BME280;32084;42.254;22.744;2023-08-30T10:32:42;94357.19;;;29.32;47.06
46379;BME280;32084;42.254;22.744;2023-08-30T10:35:12;94355.03;;;29.48;45.55
46379;BME280;32084;42.254;22.744;2023-08-30T10:37:39;94342.22;;;29.57;45.04
46379;BME280;32084;42.254;22.744;2023-08-30T10:40:05;94349.38;;;29.58;44.17
46379;BME280;32084;42.254;22.744;2023-08-30T10:42:31;94347.63;;;29.63;45.80
46379;BME280;32084;42.254;22.744;2023-08-30T10:45:03;94349.72;;;29.52;44.50
46379;BME280;32084;42.254;22.744;2023-08-30T10:47:30;94344.19;;;29.38;44.17
46379;BME280;32084;42.254;22.744;2023-08-30T10:49:57;94343.19;;;29.48;46.02
46379;BME280;32084;42.254;22.744;2023-08-30T10:52:24;94358.91;;;29.28;42.60
46379;BME280;32084;42.254;22.744;2023-08-30T10:54:50;94350.88;;;29.32;44.36
46379;BME280;32084;42.254;22.744;2023-08-30T10:57:23;94351.84;;;29.41;42.83
46379;BME280;32084;42.254;22.744;2023-08-30T11:00:08;94345.28;;;29.56;43.38
46379;BME280;32084;42.254;22.744;2023-08-30T11:02:35;94345.00;;;29.38;42.52
46379;BME280;32084;42.254;22.744;2023-08-30T11:05:03;94349.59;;;29.05;43.08
46379;BME280;32084;42.254;22.744;2023-08-30T11:07:31;94352.19;;;28.96;40.86
46379;BME280;32084;42.254;22.744;2023-08-30T11:09:57;94355.94;;;28.62;39.91
46379;BME280;32084;42.254;22.744;2023-08-30T11:12:23;94351.47;;;28.18;41.59
46379;BME280;32084;42.254;22.744;2023-08-30T11:14:54;94341.97;;;28.06;42.15
46379;BME280;32084;42.254;22.744;2023-08-30T11:17:20;94350.16;;;28.11;41.52
46379;BME280;32084;42.254;22.744;2023-08-30T11:19:49;94335.84;;;27.84;43.75
46379;BME280;32084;42.254;22.744;2023-08-30T11:22:15;94336.09;;;27.88;43.45
46379;BME280;32084;42.254;22.744;2023-08-30T11:24:42;94342.00;;;28.30;43.50
46379;BME280;32084;42.254;22.744;2023-08-30T11:27:09;94337.53;;;28.63;42.07
46379;BME280;32084;42.254;22.744;2023-08-30T11:29:35;94342.84;;;28.97;41.61
46379;BME280;32084;42.254;22.744;2023-08-30T11:32:01;94344.56;;;29.12;37.78
46379;BME280;32084;42.254;22.744;2023-08-30T11:34:27;94346.59;;;28.83;38.94
46379;BME280;32084;42.254;22.744;2023-08-30T11:36:53;94338.28;;;28.69;41.38
46379;BME280;32084;42.254;22.744;2023-08-30T11:39:19;94333.53;;;28.74;41.52
46379;BME280;32084;42.254;22.744;2023-08-30T11:41:46;94328.88;;;28.70;42.89
46379;BME280;32084;42.254;22.744;2023-08-30T11:44:12;94333.28;;;28.71;40.04
46379;BME280;32084;42.254;22.744;2023-08-30T11:46:38;94332.38;;;28.51;40.95
46379;BME280;32084;42.254;22.744;2023-08-30T11:49:04;94334.03;;;28.76;39.66
46379;BME280;32084;42.254;22.744;2023-08-30T11:51:30;94323.78;;;29.01;40.75
46379;BME280;32084;42.254;22.744;2023-08-30T11:53:56;94324.09;;;28.80;39.25
46379;BME280;32084;42.254;22.744;2023-08-30T11:56:23;94329.63;;;28.56;39.38
46379;BME280;32084;42.254;22.744;2023-08-30T11:58:49;94325.63;;;28.68;39.28
46379;BME280;32084;42.254;22.744;2023-08-30T12:01:17;94331.81;;;28.78;41.26
46379;BME280;32084;42.254;22.744;2023-08-30T12:03:43;94335.44;;;28.74;38.52
46379;BME280;32084;42.254;22.744;2023-08-30T12:06:14;94322.81;;;28.49;40.42
46379;BME280;32084;42.254;22.744;2023-08-30T12:08:40;94317.13;;;28.40;39.67
46379;BME280;32084;42.254;22.744;2023-08-30T12:11:16;94312.25;;;28.61;40.37
46379;BME280;32084;42.254;22.744;2023-08-30T12:13:42;94314.88;;;28.90;39.64
46379;BME280;32084;42.254;22.744;2023-08-30T12:16:08;94309.34;;;29.09;39.81
46379;BME280;32084;42.254;22.744;2023-08-30T12:18:41;94308.94;;;29.21;39.42
46379;BME280;32084;42.254;22.744;2023-08-30T12:21:07;94313.97;;;29.33;38.35
46379;BME280;32084;42.254;22.744;2023-08-30T12:23:33;94318.94;;;29.50;38.40
46379;BME280;32084;42.254;22.744;2023-08-30T12:26:03;94304.25;;;29.41;39.24
46379;BME280;32084;42.254;22.744;2023-08-30T12:28:33;94281.34;;;29.26;39.45
46379;BME280;32084;42.254;22.744;2023-08-30T12:31:00;94292.13;;;29.23;38.58
46379;BME280;32084;42.254;22.744;2023-08-30T12:33:26;94295.44;;;29.38;39.78
46379;BME280;32084;42.254;22.744;2023-08-30T12:35:52;94297.09;;;29.39;38.74
46379;BME280;32084;42.254;22.744;2023-08-30T12:38:18;94298.72;;;29.41;38.46
46379;BME280;32084;42.254;22.744;2023-08-30T12:40:45;94292.69;;;29.38;38.38
46379;BME280;32084;42.254;22.744;2023-08-30T12:43:12;94294.09;;;29.36;38.08
46379;BME280;32084;42.254;22.744;2023-08-30T12:45:38;94286.94;;;29.54;38.39
46379;BME280;32084;42.254;22.744;2023-08-30T12:48:05;94290.47;;;29.73;37.36
46379;BME280;32084;42.254;22.744;2023-08-30T12:50:33;94302.22;;;29.79;35.57
46379;BME280;32084;42.254;22.744;2023-08-30T12:52:59;94300.72;;;29.87;37.10
46379;BME280;32084;42.254;22.744;2023-08-30T12:55:25;94307.97;;;29.64;35.28
46379;BME280;32084;42.254;22.744;2023-08-30T12:57:51;94301.22;;;29.56;35.07